Time;durP1;ratioP1;P1;durP2;ratioP2;P2;SDS_P1;SDS_P2;PMS_P1;PMS_P2;Temp;Humidity;BMP_temperature;BMP_pressure;BME280_temperature;BME280_humidity;BME280_pressure;Samples;Min_cycle;Max_cycle;Signal;HPM_P1;HPM_P2
2020/12/19 00:00:38;;;;;;;21.65;15.88;;;6.10;99.90;;;;;;5055494;28;20065;-95
2020/12/19 00:03:11;;;;;;;19.17;14.30;;;6.10;99.90;;;;;;5037446;28;20480;-94
2020/12/19 00:05:38;;;;;;;20.35;15.27;;;6.10;99.90;;;;;;5038632;28;20077;-93
2020/12/19 00:08:07;;;;;;;21.83;16.33;;;6.10;99.90;;;;;;5038326;28;20477;-94
2020/12/19 00:10:44;;;;;;;;;;;;;;;;;;;;;
2020/12/19 00:13:16;;;;;;;19.35;14.85;;;6.10;99.90;;;;;;5056491;28;20032;-95
2020/12/19 00:15:45;;;;;;;20.00;14.52;;;6.10;99.90;;;;;;5056107;28;20043;-94
2020/12/19 00:18:11;;;;;;;23.38;15.27;;;6.00;99.90;;;;;;5022284;28;20111;-94
2020/12/19 00:20:37;;;;;;;22.55;15.85;;;6.00;99.90;;;;;;5038949;28;20480;-95
2020/12/19 00:23:06;;;;;;;21.80;14.82;;;6.00;99.90;;;;;;5056320;28;20032;-95
2020/12/19 00:25:32;;;;;;;22.25;16.27;;;6.00;99.90;;;;;;5055899;28;20041;-95
2020/12/19 00:27:58;;;;;;;22.58;15.05;;;6.00;99.90;;;;;;5054534;28;20052;-95
2020/12/19 00:30:23;;;;;;;22.55;14.52;;;5.90;99.90;;;;;;5038020;28;20065;-94
2020/12/19 00:32:52;;;;;;;24.88;17.60;;;5.90;99.90;;;;;;5054318;28;20041;-94
2020/12/19 00:35:18;;;;;;;21.48;16.02;;;5.90;99.90;;;;;;5055336;28;20041;-95
2020/12/19 00:37:48;;;;;;;21.45;14.90;;;5.90;99.90;;;;;;5036841;28;20053;-95
2020/12/19 00:40:15;;;;;;;23.27;16.67;;;5.90;99.90;;;;;;5037610;28;20183;-95
2020/12/19 00:42:43;;;;;;;23.40;16.00;;;5.90;99.90;;;;;;5053722;28;20037;-94
2020/12/19 00:45:09;;;;;;;23.33;16.35;;;5.90;99.90;;;;;;5036857;28;20052;-93
2020/12/19 00:47:36;;;;;;;21.42;15.50;;;5.90;99.90;;;;;;5053922;28;20041;-93
2020/12/19 00:50:08;;;;;;;23.70;15.23;;;5.80;99.90;;;;;;5054239;28;20033;-94
2020/12/19 00:52:35;;;;;;;21.70;15.13;;;5.80;99.90;;;;;;5037988;28;20053;-95
2020/12/19 00:55:06;;;;;;;20.90;15.07;;;5.80;99.90;;;;;;5037715;28;20040;-93
2020/12/19 00:57:37;;;;;;;19.60;14.07;;;5.80;99.90;;;;;;5052313;28;20041;-94
2020/12/19 01:00:09;;;;;;;25.13;17.88;;;5.70;99.90;;;;;;5057515;28;20044;-94
2020/12/19 01:02:49;;;;;;;23.83;16.65;;;5.80;99.90;;;;;;5057809;28;20036;-94
2020/12/19 01:05:24;;;;;;;23.10;16.08;;;5.80;99.90;;;;;;5040257;28;20037;-94
2020/12/19 01:07:50;;;;;;;20.73;14.95;;;5.80;99.90;;;;;;5075507;28;20033;-93
2020/12/19 01:10:23;;;;;;;22.15;14.85;;;5.70;99.90;;;;;;5056950;28;20094;-93
2020/12/19 01:12:55;;;;;;;19.25;14.15;;;5.70;99.90;;;;;;5075351;28;20028;-93
2020/12/19 01:15:24;;;;;;;23.67;16.73;;;5.70;99.90;;;;;;5073226;28;20040;-95
2020/12/19 01:17:50;;;;;;;21.83;16.08;;;5.70;99.90;;;;;;5075067;28;20028;-94
2020/12/19 01:20:16;;;;;;;29.75;18.95;;;5.70;99.90;;;;;;5057474;28;20032;-94
2020/12/19 01:22:42;;;;;;;26.05;17.67;;;5.70;99.90;;;;;;5058935;28;20043;-93
2020/12/19 01:25:11;;;;;;;23.00;15.63;;;5.70;99.90;;;;;;5078681;28;20040;-93
2020/12/19 01:27:40;;;;;;;22.40;15.43;;;5.70;99.90;;;;;;5096230;28;20040;-93
2020/12/19 01:30:08;;;;;;;21.58;15.48;;;5.60;99.90;;;;;;5080819;28;20100;-95
2020/12/19 01:32:34;;;;;;;22.85;16.50;;;5.60;99.90;;;;;;5078997;28;20016;-96
2020/12/19 01:35:00;;;;;;;21.25;14.35;;;5.60;99.90;;;;;;5079559;28;20027;-94
2020/12/19 01:37:26;;;;;;;18.20;13.40;;;5.60;99.90;;;;;;5099863;28;20029;-95
2020/12/19 01:39:51;;;;;;;18.60;13.23;;;5.60;99.90;;;;;;5064627;28;20036;-95
2020/12/19 01:42:20;;;;;;;17.30;11.75;;;5.50;99.90;;;;;;5052334;28;20040;-95
2020/12/19 01:44:49;;;;;;;16.90;11.65;;;5.50;99.90;;;;;;5058558;28;20584;-95
2020/12/19 01:47:21;;;;;;;16.73;12.00;;;5.40;99.90;;;;;;5057659;28;20036;-94
2020/12/19 01:49:50;;;;;;;17.35;12.20;;;5.40;99.90;;;;;;5057930;28;20025;-95
2020/12/19 01:52:26;;;;;;;15.50;11.27;;;5.40;99.90;;;;;;5058085;28;20072;-95
2020/12/19 01:54:56;;;;;;;19.27;12.32;;;5.40;99.90;;;;;;5040941;28;20098;-95
2020/12/19 01:57:29;;;;;;;18.63;11.93;;;5.30;99.90;;;;;;5040726;28;20033;-95
2020/12/19 01:59:56;;;;;;;18.05;11.38;;;5.30;99.90;;;;;;5057103;28;20361;-94
2020/12/19 02:02:25;;;;;;;16.10;11.50;;;5.30;99.90;;;;;;5057880;28;20412;-96
2020/12/19 02:04:56;;;;;;;16.27;11.48;;;5.20;99.90;;;;;;5057487;28;20033;-96
2020/12/19 02:07:23;;;;;;;17.92;11.32;;;5.20;99.90;;;;;;5040642;28;20064;-96
2020/12/19 02:09:51;;;;;;;15.32;10.23;;;5.20;99.90;;;;;;5041152;28;20040;-95
2020/12/19 02:12:18;;;;;;;14.10;9.88;;;5.20;99.90;;;;;;5057531;28;20388;-95
2020/12/19 02:14:46;;;;;;;16.85;10.27;;;5.20;99.90;;;;;;5057107;28;20064;-94
2020/12/19 02:17:14;;;;;;;16.92;11.38;;;5.10;99.90;;;;;;5040679;28;20029;-95
2020/12/19 02:19:40;;;;;;;16.02;11.63;;;5.10;99.90;;;;;;5040361;28;20037;-96
2020/12/19 02:22:08;;;;;;;18.25;12.45;;;5.10;99.90;;;;;;5040445;28;20037;-95
2020/12/19 02:24:34;;;;;;;16.33;11.55;;;5.10;99.90;;;;;;5039852;28;20033;-94
2020/12/19 02:27:00;;;;;;;20.27;12.65;;;5.10;99.90;;;;;;5040480;28;20396;-95
2020/12/19 02:29:32;;;;;;;19.20;12.48;;;5.10;99.90;;;;;;5040627;28;20025;-93
2020/12/19 02:32:00;;;;;;;18.25;12.88;;;5.10;99.90;;;;;;5057503;28;20037;-95
2020/12/19 02:34:28;;;;;;;15.93;10.93;;;5.10;99.90;;;;;;5039715;28;20123;-95
2020/12/19 02:36:54;;;;;;;17.95;11.77;;;5.10;99.90;;;;;;5039452;28;20080;-95
2020/12/19 02:39:20;;;;;;;16.95;11.60;;;5.10;99.90;;;;;;5039803;28;20041;-95
2020/12/19 02:41:52;;;;;;;17.27;11.82;;;5.10;99.90;;;;;;5040201;28;20068;-96
2020/12/19 02:44:21;;;;;;;17.45;12.20;;;5.10;99.90;;;;;;5057068;28;20037;-96
2020/12/19 02:46:50;;;;;;;21.95;14.40;;;5.10;99.90;;;;;;5040034;28;20424;-94
2020/12/19 02:49:16;;;;;;;21.73;14.32;;;5.10;99.90;;;;;;5054551;28;20037;-95
2020/12/19 02:51:45;;;;;;;21.38;14.57;;;5.10;99.90;;;;;;5039411;28;20037;-95
2020/12/19 02:54:17;;;;;;;19.13;13.80;;;5.10;99.90;;;;;;5023182;28;20045;-94
2020/12/19 02:56:46;;;;;;;18.95;13.43;;;5.10;99.90;;;;;;5040136;28;20033;-95
2020/12/19 02:59:14;;;;;;;17.70;12.13;;;5.10;99.90;;;;;;5038778;28;20044;-94
2020/12/19 03:01:53;;;;;;;20.10;12.57;;;5.10;99.90;;;;;;5056729;28;20044;-95
2020/12/19 03:04:19;;;;;;;21.27;13.00;;;5.10;99.90;;;;;;5039981;28;20075;-94
2020/12/19 03:06:48;;;;;;;19.98;13.77;;;5.10;99.90;;;;;;5055539;28;20455;-95
2020/12/19 03:09:18;;;;;;;21.70;14.05;;;5.10;99.90;;;;;;5054188;28;20492;-94
2020/12/19 03:11:44;;;;;;;20.17;13.65;;;5.10;99.90;;;;;;5038303;28;20044;-94
2020/12/19 03:14:10;;;;;;;17.58;11.02;;;5.10;99.90;;;;;;5038792;28;20045;-95
2020/12/19 03:16:36;;;;;;;21.55;12.70;;;5.10;99.90;;;;;;5038613;28;20040;-95
2020/12/19 03:19:01;;;;;;;19.25;13.05;;;5.10;99.90;;;;;;5038385;28;20486;-95
2020/12/19 03:21:27;;;;;;;19.05;11.65;;;5.10;99.90;;;;;;5037998;28;20036;-93
2020/12/19 03:23:53;;;;;;;19.10;12.85;;;5.00;99.90;;;;;;5038718;28;20078;-94
2020/12/19 03:26:18;;;;;;;21.88;14.07;;;5.00;99.90;;;;;;5055408;28;20127;-94
2020/12/19 03:28:44;;;;;;;22.15;14.88;;;5.10;99.90;;;;;;5056893;28;20047;-93
2020/12/19 03:31:12;;;;;;;23.25;14.35;;;5.10;99.90;;;;;;5055611;28;20039;-94
2020/12/19 03:33:40;;;;;;;27.95;17.77;;;5.10;99.90;;;;;;5038881;28;20033;-94
2020/12/19 03:36:08;;;;;;;25.80;16.90;;;5.20;99.90;;;;;;5055406;28;20492;-94
2020/12/19 03:38:33;;;;;;;24.60;15.85;;;5.20;99.90;;;;;;5038297;28;20108;-94
2020/12/19 03:40:59;;;;;;;22.90;15.27;;;5.20;99.90;;;;;;5038755;28;20123;-94
2020/12/19 03:43:24;;;;;;;20.90;14.77;;;5.20;99.90;;;;;;5056192;28;20041;-94
2020/12/19 03:45:50;;;;;;;20.05;14.38;;;5.20;99.90;;;;;;5037393;28;20358;-94
2020/12/19 03:48:16;;;;;;;20.05;13.48;;;5.10;99.90;;;;;;5056332;28;20053;-94
2020/12/19 03:50:41;;;;;;;19.13;12.38;;;5.10;99.90;;;;;;5038275;28;20064;-94
2020/12/19 03:53:07;;;;;;;18.30;12.73;;;5.10;99.90;;;;;;5038129;28;20081;-95
2020/12/19 03:55:35;;;;;;;18.45;11.65;;;5.10;99.90;;;;;;5056123;28;20084;-94
2020/12/19 03:58:04;;;;;;;20.80;13.13;;;5.00;99.90;;;;;;5038647;28;20025;-93
2020/12/19 04:00:29;;;;;;;18.67;12.43;;;5.00;99.90;;;;;;5038636;28;20120;-94
2020/12/19 04:02:55;;;;;;;16.23;11.07;;;5.00;99.90;;;;;;5038003;28;20175;-94
2020/12/19 04:05:22;;;;;;;19.40;12.13;;;5.00;99.90;;;;;;5038003;28;20044;-94
2020/12/19 04:07:51;;;;;;;16.77;10.88;;;5.00;99.90;;;;;;5038240;28;20033;-94
2020/12/19 04:10:17;;;;;;;17.33;10.82;;;5.00;99.90;;;;;;5038351;28;20043;-95
2020/12/19 04:12:46;;;;;;;21.70;13.52;;;5.00;99.90;;;;;;5037524;28;20507;-94
2020/12/19 04:15:12;;;;;;;18.35;12.40;;;4.90;99.90;;;;;;5054624;28;20033;-94
2020/12/19 04:17:38;;;;;;;17.83;12.05;;;4.90;99.90;;;;;;5054831;28;20063;-94
2020/12/19 04:20:09;;;;;;;19.60;12.68;;;4.90;99.90;;;;;;5054993;28;20033;-94
2020/12/19 04:22:35;;;;;;;18.73;12.68;;;4.90;99.90;;;;;;5038084;28;20037;-94
2020/12/19 04:25:05;;;;;;;19.02;12.30;;;4.90;99.90;;;;;;5037100;28;20124;-96
2020/12/19 04:27:32;;;;;;;18.90;12.63;;;4.80;99.90;;;;;;5037749;28;20043;-95
2020/12/19 04:30:03;;;;;;;20.85;11.77;;;4.80;99.90;;;;;;5038027;28;20564;-93
2020/12/19 04:32:35;;;;;;;18.00;11.60;;;4.80;99.90;;;;;;5054658;28;20084;-94
2020/12/19 04:35:01;;;;;;;20.42;13.80;;;4.80;99.90;;;;;;5037940;28;20138;-95
2020/12/19 04:37:32;;;;;;;20.33;12.52;;;4.80;99.90;;;;;;5037743;28;20053;-96
2020/12/19 04:40:01;;;;;;;16.92;11.75;;;4.80;99.90;;;;;;5038240;28;20025;-96
2020/12/19 04:42:28;;;;;;;19.00;12.30;;;4.80;99.90;;;;;;5055460;28;20029;-95
2020/12/19 04:44:57;;;;;;;19.42;12.50;;;4.80;99.90;;;;;;5054619;28;20080;-96
2020/12/19 04:47:23;;;;;;;18.35;11.73;;;4.80;99.90;;;;;;5037641;28;20132;-92
2020/12/19 04:49:57;;;;;;;18.73;11.35;;;4.80;99.90;;;;;;5037122;28;20056;-94
2020/12/19 04:52:27;;;;;;;20.23;12.05;;;4.80;99.90;;;;;;5055642;28;20373;-94
2020/12/19 04:54:57;;;;;;;19.00;12.07;;;4.80;99.90;;;;;;5037143;28;20128;-94
2020/12/19 04:57:30;;;;;;;19.83;12.20;;;4.70;99.90;;;;;;5053684;28;20040;-96
2020/12/19 04:59:59;;;;;;;21.98;13.73;;;4.80;99.90;;;;;;5037366;28;20033;-95
2020/12/19 05:02:27;;;;;;;19.67;12.57;;;4.80;99.90;;;;;;5055364;28;20083;-95
2020/12/19 05:05:08;;;;;;;20.83;13.48;;;4.80;99.90;;;;;;5053716;28;20480;-94
2020/12/19 05:07:54;;;;;;;19.90;12.88;;;4.80;99.90;;;;;;5052867;28;20504;-95
2020/12/19 05:10:25;;;;;;;19.95;12.30;;;4.80;99.90;;;;;;5054052;28;20026;-96
2020/12/19 05:12:57;;;;;;;20.83;13.50;;;4.80;99.90;;;;;;5053974;28;20504;-95
2020/12/19 05:15:26;;;;;;;21.98;14.20;;;4.80;99.90;;;;;;5054217;28;20036;-95
2020/12/19 05:17:54;;;;;;;22.80;14.10;;;4.90;99.90;;;;;;5037414;28;20516;-94
2020/12/19 05:20:21;;;;;;;21.73;13.88;;;4.90;99.90;;;;;;5053891;28;20063;-94
2020/12/19 05:22:51;;;;;;;22.17;13.80;;;4.90;99.90;;;;;;5054995;28;20528;-95
2020/12/19 05:25:21;;;;;;;20.48;12.20;;;4.90;99.90;;;;;;5036961;28;20037;-96
2020/12/19 05:27:48;;;;;;;20.90;13.48;;;4.90;99.90;;;;;;5037171;28;20052;-94
2020/12/19 05:30:18;;;;;;;22.55;13.77;;;4.90;99.90;;;;;;5036836;28;20025;-94
2020/12/19 05:32:49;;;;;;;19.05;12.75;;;4.90;99.90;;;;;;5053311;28;20029;-94
2020/12/19 05:35:19;;;;;;;19.77;12.45;;;4.90;99.90;;;;;;5040677;28;20029;-94
2020/12/19 05:38:05;;;;;;;19.67;13.15;;;4.90;99.90;;;;;;5036852;28;20401;-94
2020/12/19 05:40:33;;;;;;;21.25;12.68;;;4.90;99.90;;;;;;5036619;28;20033;-95
2020/12/19 05:43:02;;;;;;;17.85;11.50;;;4.90;99.90;;;;;;5037005;28;20037;-95
2020/12/19 05:45:33;;;;;;;25.27;15.48;;;4.90;99.90;;;;;;5053515;28;20473;-95
2020/12/19 05:47:59;;;;;;;27.02;17.52;;;4.90;99.90;;;;;;5037036;28;20032;-95
2020/12/19 05:50:27;;;;;;;25.23;15.57;;;5.00;99.90;;;;;;5054781;28;20032;-96
2020/12/19 05:52:56;;;;;;;23.85;15.13;;;5.00;99.90;;;;;;5053666;28;20037;-94
2020/12/19 05:55:22;;;;;;;22.55;14.68;;;5.00;99.90;;;;;;5053151;28;20045;-95
2020/12/19 05:57:48;;;;;;;21.73;13.90;;;5.00;99.90;;;;;;5053193;28;20033;-95
2020/12/19 06:00:17;;;;;;;20.80;12.85;;;5.00;99.90;;;;;;5052886;28;20064;-94
2020/12/19 06:02:50;;;;;;;18.13;12.13;;;5.00;99.90;;;;;;5053345;28;20055;-94
2020/12/19 06:05:16;;;;;;;18.55;12.13;;;5.00;99.90;;;;;;5020707;28;20128;-95
2020/12/19 06:07:49;;;;;;;20.42;12.32;;;5.00;99.90;;;;;;5036654;28;20065;-94
2020/12/19 06:10:16;;;;;;;;;;;5.00;99.90;;;;;;5039740;28;20119;-95
2020/12/19 06:13:16;;;;;;;19.05;11.45;;;4.90;99.90;;;;;;5040939;28;19911;-95
2020/12/19 06:16:07;;;;;;;17.02;11.80;;;4.90;99.90;;;;;;5058667;28;20033;-95
2020/12/19 06:18:48;;;;;;;18.30;11.80;;;4.90;99.90;;;;;;5040640;28;20025;-95
2020/12/19 06:21:16;;;;;;;21.83;13.55;;;4.90;99.90;;;;;;5058208;28;20055;-95
2020/12/19 06:23:42;;;;;;;19.00;12.18;;;4.90;99.90;;;;;;5057400;28;20028;-95
2020/12/19 06:26:10;;;;;;;20.20;12.25;;;4.90;99.90;;;;;;5080004;28;20037;-95
2020/12/19 06:28:41;;;;;;;24.15;15.00;;;4.90;99.90;;;;;;5064202;28;20010;-95
2020/12/19 06:31:09;;;;;;;20.83;13.60;;;4.90;99.90;;;;;;5080708;28;20017;-95
2020/12/19 06:33:38;;;;;;;19.90;13.40;;;4.90;99.90;;;;;;5063836;28;20033;-96
2020/12/19 06:36:16;;;;;;;19.15;12.60;;;4.90;99.90;;;;;;5058489;28;20022;-94
2020/12/19 06:38:52;;;;;;;20.58;13.20;;;4.90;99.90;;;;;;5046232;28;20061;-96
2020/12/19 06:41:41;;;;;;;20.20;12.20;;;4.90;99.90;;;;;;5057153;28;20040;-94
2020/12/19 06:44:25;;;;;;;18.77;11.55;;;4.90;99.90;;;;;;5040463;28;20040;-95
2020/12/19 06:46:51;;;;;;;16.73;11.32;;;4.90;99.90;;;;;;5040307;28;20075;-95
2020/12/19 06:49:25;;;;;;;18.23;11.32;;;4.80;99.90;;;;;;5056620;28;20029;-94
2020/12/19 06:52:12;;;;;;;18.85;12.68;;;4.80;99.90;;;;;;5056565;28;20469;-95
2020/12/19 06:54:45;;;;;;;17.95;11.57;;;4.80;99.90;;;;;;5039617;28;20122;-95
2020/12/19 06:57:30;;;;;;;18.00;12.25;;;4.80;99.90;;;;;;5039791;28;20056;-94
2020/12/19 07:00:28;;;;;;;21.48;12.65;;;4.80;99.90;;;;;;5039695;28;20091;-94
2020/12/19 07:03:01;;;;;;;21.85;13.48;;;4.90;99.90;;;;;;5039801;28;20044;-94
2020/12/19 07:05:33;;;;;;;17.98;11.55;;;4.90;99.90;;;;;;5039178;28;20033;-95
2020/12/19 07:08:19;;;;;;;21.92;13.45;;;4.90;99.90;;;;;;5055917;28;20041;-94
2020/12/19 07:10:49;;;;;;;20.83;12.60;;;4.90;99.90;;;;;;5056557;28;20040;-94
2020/12/19 07:13:15;;;;;;;19.67;12.88;;;4.90;99.90;;;;;;5039273;28;20044;-94
2020/12/19 07:15:52;;;;;;;19.42;13.15;;;5.00;99.90;;;;;;5039250;28;20105;-93
2020/12/19 07:18:40;;;;;;;16.48;11.35;;;5.00;99.90;;;;;;5055997;28;20464;-94
2020/12/19 07:21:17;;;;;;;18.70;12.82;;;5.00;99.90;;;;;;5054910;28;20040;-93
2020/12/19 07:23:54;;;;;;;18.13;12.25;;;5.00;99.90;;;;;;5056585;28;20029;-95
2020/12/19 07:26:22;;;;;;;19.20;12.57;;;5.00;99.90;;;;;;5039046;28;20041;-95
2020/12/19 07:28:52;;;;;;;19.55;12.15;;;5.00;99.90;;;;;;5055264;28;20060;-94
2020/12/19 07:31:29;;;;;;;16.70;11.82;;;4.90;99.90;;;;;;5056716;28;20069;-93
2020/12/19 07:33:59;;;;;;;16.88;11.00;;;4.90;99.90;;;;;;5039067;28;20041;-94
2020/12/19 07:36:30;;;;;;;22.02;13.35;;;4.90;99.90;;;;;;5038565;28;20083;-93
2020/12/19 07:39:02;;;;;;;18.30;11.90;;;4.90;99.90;;;;;;5035710;28;20045;-94
2020/12/19 07:41:35;;;;;;;21.35;12.30;;;4.90;99.90;;;;;;5035230;28;20037;-93
2020/12/19 07:44:35;;;;;;;19.05;12.82;;;4.90;99.90;;;;;;5018783;28;20580;-95
2020/12/19 07:47:05;;;;;;;18.13;11.63;;;4.90;99.90;;;;;;5033931;28;20464;-95
2020/12/19 07:49:33;;;;;;;24.10;14.77;;;4.90;99.90;;;;;;5018613;28;20060;-94
2020/12/19 07:52:17;;;;;;;23.15;13.65;;;4.90;99.90;;;;;;5039970;28;20041;-95
2020/12/19 07:54:51;;;;;;;21.42;14.48;;;5.00;99.90;;;;;;5044429;28;20125;-95
2020/12/19 07:57:17;;;;;;;26.23;17.05;;;5.10;99.90;;;;;;5025929;28;20084;-94
2020/12/19 07:59:56;;;;;;;;;;;;;;;;;;;;;
2020/12/19 08:02:36;;;;;;;30.55;20.40;;;5.10;99.90;;;;;;5054664;28;20036;-94
2020/12/19 08:05:02;;;;;;;32.08;21.17;;;5.20;99.90;;;;;;5037852;28;20044;-93
2020/12/19 08:07:39;;;;;;;28.60;19.60;;;5.30;99.90;;;;;;5036112;28;20041;-95
2020/12/19 08:10:10;;;;;;;35.90;23.63;;;5.30;99.90;;;;;;5052204;28;20064;-96
2020/12/19 08:12:45;;;;;;;35.13;22.42;;;5.40;99.90;;;;;;5052947;28;20171;-94
2020/12/19 08:15:23;;;;;;;32.17;22.17;;;5.50;99.90;;;;;;5045074;28;20055;-95
2020/12/19 08:17:59;;;;;;;31.63;20.25;;;5.60;99.90;;;;;;5029299;28;20034;-95
2020/12/19 08:20:32;;;;;;;35.35;22.95;;;5.60;99.90;;;;;;5041494;28;20081;-95
2020/12/19 08:23:09;;;;;;;34.03;23.08;;;5.70;99.90;;;;;;5032093;28;20026;-93
2020/12/19 08:25:45;;;;;;;34.25;23.35;;;5.80;99.90;;;;;;5009694;28;20444;-94
2020/12/19 08:28:25;;;;;;;28.85;21.00;;;5.80;99.90;;;;;;5034510;28;20030;-94
2020/12/19 08:30:52;;;;;;;31.65;21.75;;;5.90;99.90;;;;;;5016752;28;20061;-94
2020/12/19 08:33:19;;;;;;;30.67;20.65;;;6.00;99.90;;;;;;5032670;28;20529;-95
2020/12/19 08:35:46;;;;;;;35.78;23.83;;;6.00;99.90;;;;;;5031450;28;20035;-93
2020/12/19 08:38:29;;;;;;;33.08;22.67;;;6.10;99.90;;;;;;5039772;28;20047;-93
2020/12/19 08:40:58;;;;;;;35.60;22.80;;;6.30;99.90;;;;;;5062291;28;20033;-94
2020/12/19 08:43:35;;;;;;;32.55;22.13;;;6.30;99.90;;;;;;5057794;28;20028;-94
2020/12/19 08:46:19;;;;;;;32.50;22.25;;;6.50;99.90;;;;;;5041373;28;20498;-93
2020/12/19 08:48:47;;;;;;;31.80;20.58;;;6.60;99.90;;;;;;5060831;28;20052;-93
2020/12/19 08:51:20;;;;;;;29.67;20.10;;;6.60;99.90;;;;;;5060805;28;20032;-93
2020/12/19 08:53:53;;;;;;;29.58;19.38;;;6.70;99.90;;;;;;5060840;28;20036;-93
2020/12/19 08:56:25;;;;;;;;;;;6.70;99.90;;;;;;5062086;28;20036;-95
2020/12/19 08:58:55;;;;;;;28.58;19.35;;;6.80;99.90;;;;;;5047124;28;19951;-95
2020/12/19 09:01:21;;;;;;;33.47;22.08;;;6.80;99.90;;;;;;5057953;28;20033;-94
2020/12/19 09:03:47;;;;;;;28.58;20.45;;;6.90;99.90;;;;;;5042481;28;20040;-94
2020/12/19 09:06:18;;;;;;;30.85;19.35;;;7.00;99.90;;;;;;5044408;28;20025;-95
2020/12/19 09:08:46;;;;;;;29.98;19.63;;;7.30;99.90;;;;;;5040962;28;20039;-91
2020/12/19 09:11:26;;;;;;;29.15;19.80;;;7.60;99.90;;;;;;5064744;28;20029;-96
2020/12/19 09:14:08;;;;;;;25.35;18.67;;;7.70;99.90;;;;;;5044765;28;20036;-96
2020/12/19 09:16:34;;;;;;;24.10;17.77;;;8.30;99.90;;;;;;5071899;28;20060;-95
2020/12/19 09:19:03;;;;;;;23.85;16.33;;;9.40;99.90;;;;;;5068534;28;20489;-93
2020/12/19 09:21:28;;;;;;;19.75;15.25;;;10.40;99.90;;;;;;5043720;28;20064;-92
2020/12/19 09:24:14;;;;;;;19.02;13.63;;;11.20;99.90;;;;;;5044322;28;20072;-93
2020/12/19 09:26:54;;;;;;;19.33;13.30;;;11.80;99.90;;;;;;5046797;28;20041;-92
2020/12/19 09:29:20;;;;;;;15.55;12.52;;;12.20;99.70;;;;;;5061134;28;20064;-93
2020/12/19 09:31:46;;;;;;;16.85;12.60;;;12.60;99.30;;;;;;5043205;28;20048;-93
2020/12/19 09:34:11;;;;;;;16.75;11.55;;;12.90;98.30;;;;;;5044810;28;20527;-93
2020/12/19 09:36:38;;;;;;;15.07;11.90;;;13.20;98.10;;;;;;5034786;28;20108;-93
2020/12/19 09:39:04;;;;;;;16.35;11.00;;;13.50;96.80;;;;;;5034001;28;20095;-94
2020/12/19 09:41:31;;;;;;;14.27;10.98;;;13.70;95.70;;;;;;5052282;28;20033;-93
2020/12/19 09:44:02;;;;;;;15.48;10.98;;;13.80;94.40;;;;;;5047135;28;20317;-92
2020/12/19 09:46:28;;;;;;;17.02;11.85;;;13.90;94.40;;;;;;5047391;28;20023;-93
2020/12/19 09:48:54;;;;;;;14.55;10.57;;;13.90;94.20;;;;;;5057927;28;20481;-94
2020/12/19 09:51:23;;;;;;;17.80;11.80;;;14.00;94.20;;;;;;5039213;28;20044;-94
2020/12/19 09:53:49;;;;;;;14.07;10.00;;;14.30;93.40;;;;;;5057044;28;20067;-93
2020/12/19 09:56:18;;;;;;;13.02;10.10;;;14.40;93.40;;;;;;5056486;28;20028;-92
2020/12/19 09:58:47;;;;;;;13.10;10.27;;;14.80;94.00;;;;;;5055898;28;20124;-95
2020/12/19 10:01:15;;;;;;;13.57;9.95;;;15.20;93.40;;;;;;5056681;28;20116;-94
2020/12/19 10:03:50;;;;;;;12.75;9.75;;;15.50;91.60;;;;;;5038394;28;20051;-93
2020/12/19 10:06:19;;;;;;;12.32;9.98;;;15.80;92.30;;;;;;5037984;28;20112;-94
2020/12/19 10:08:59;;;;;;;14.10;9.77;;;15.90;90.60;;;;;;5051903;28;20483;-90
2020/12/19 10:11:28;;;;;;;14.18;8.55;;;15.90;88.00;;;;;;5037891;28;20041;-93
2020/12/19 10:13:54;;;;;;;11.95;9.82;;;15.90;89.90;;;;;;5056661;28;20028;-95
2020/12/19 10:16:22;;;;;;;12.80;9.23;;;15.30;89.60;;;;;;5052820;28;20519;-93
2020/12/19 10:18:48;;;;;;;13.30;9.93;;;14.90;91.40;;;;;;5057339;28;20024;-92
2020/12/19 10:21:13;;;;;;;14.52;9.88;;;14.40;91.60;;;;;;5057572;28;20036;-93
2020/12/19 10:23:39;;;;;;;13.90;9.85;;;13.90;92.80;;;;;;5058495;28;20549;-96
2020/12/19 10:26:15;;;;;;;12.77;9.55;;;13.60;93.90;;;;;;5075927;28;20031;-93
2020/12/19 10:28:41;;;;;;;13.35;9.70;;;13.40;94.40;;;;;;5075191;28;20029;-93
2020/12/19 10:31:07;;;;;;;14.10;9.05;;;13.30;94.50;;;;;;5057948;28;20039;-96
2020/12/19 10:33:32;;;;;;;12.45;10.38;;;13.10;95.30;;;;;;5075833;28;20472;-93
2020/12/19 10:36:02;;;;;;;14.32;10.73;;;12.90;95.50;;;;;;5058120;28;20090;-91
2020/12/19 10:38:28;;;;;;;12.23;9.70;;;12.60;95.70;;;;;;5075997;28;20037;-95
2020/12/19 10:43:45;;;;;;;13.98;10.95;;;12.30;96.60;;;;;;5075865;28;20045;-94
2020/12/19 10:46:45;;;;;;;14.40;11.25;;;11.90;97.10;;;;;;5058736;28;20044;-96
2020/12/19 10:49:11;;;;;;;15.60;11.85;;;11.70;97.80;;;;;;5055850;28;20036;-95
2020/12/19 10:51:37;;;;;;;14.77;11.60;;;11.40;98.50;;;;;;5059718;28;20035;-95
2020/12/19 10:54:09;;;;;;;12.75;10.77;;;11.30;98.80;;;;;;5060932;28;20051;-96
2020/12/19 10:59:24;;;;;;;14.05;10.18;;;11.30;99.70;;;;;;5113690;27;20363;-86
2020/12/19 11:01:50;;;;;;;13.00;9.60;;;11.40;99.80;;;;;;5112590;28;20032;-82
2020/12/19 11:04:16;;;;;;;12.57;10.25;;;11.40;99.90;;;;;;5111525;28;20027;-85
2020/12/19 11:06:41;;;;;;;13.35;10.38;;;11.50;99.90;;;;;;5091224;28;20162;-85
2020/12/19 11:09:07;;;;;;;13.55;9.25;;;11.40;99.80;;;;;;5090761;28;20028;-84
2020/12/19 11:11:33;;;;;;;15.10;9.95;;;11.40;99.90;;;;;;5089830;28;20107;-86
2020/12/19 11:13:58;;;;;;;12.63;9.50;;;11.40;99.90;;;;;;5107544;28;20028;-84
2020/12/19 11:16:29;;;;;;;12.70;9.10;;;11.40;99.80;;;;;;5090128;28;20032;-83
2020/12/19 11:18:55;;;;;;;12.02;8.50;;;11.30;99.90;;;;;;5106214;28;20081;-83
2020/12/19 11:21:21;;;;;;;11.95;8.15;;;11.40;99.80;;;;;;5107512;28;20358;-83
2020/12/19 11:23:48;;;;;;;11.98;8.77;;;11.50;99.60;;;;;;5109095;28;20031;-84
2020/12/19 11:26:17;;;;;;;11.50;8.88;;;11.40;99.70;;;;;;5107016;28;20051;-84
2020/12/19 11:28:47;;;;;;;11.32;9.02;;;11.40;99.50;;;;;;5098337;28;20032;-86
2020/12/19 11:31:13;;;;;;;13.15;10.05;;;11.40;99.70;;;;;;5109551;28;20019;-85
2020/12/19 11:33:39;;;;;;;13.63;9.20;;;11.40;99.90;;;;;;5127528;28;20050;-83
2020/12/19 11:36:04;;;;;;;12.50;9.23;;;11.50;99.90;;;;;;5109310;27;20020;-84
2020/12/19 11:38:30;;;;;;;13.18;9.32;;;11.90;99.90;;;;;;5087115;28;20051;-84
2020/12/19 11:40:56;;;;;;;12.52;8.85;;;12.10;99.40;;;;;;5099838;28;20081;-84
2020/12/19 11:43:21;;;;;;;11.95;9.25;;;12.10;99.10;;;;;;5105387;28;20034;-84
2020/12/19 11:45:50;;;;;;;12.27;8.68;;;12.10;99.00;;;;;;5106834;28;20036;-85
2020/12/19 11:48:16;;;;;;;12.05;8.82;;;12.10;98.80;;;;;;5088652;28;20043;-84
2020/12/19 11:50:42;;;;;;;13.20;8.40;;;12.00;98.70;;;;;;5088952;28;20381;-86
2020/12/19 11:53:07;;;;;;;11.52;8.25;;;12.10;98.70;;;;;;5087612;28;20046;-84
2020/12/19 11:55:33;;;;;;;13.48;8.75;;;12.00;98.90;;;;;;5105527;28;20023;-83
2020/12/19 11:57:59;;;;;;;12.73;7.60;;;12.10;99.20;;;;;;5106119;28;20060;-83
2020/12/19 12:00:24;;;;;;;11.90;7.82;;;12.10;99.00;;;;;;5089200;28;20034;-84
2020/12/19 12:02:51;;;;;;;13.50;8.23;;;12.10;98.60;;;;;;5104135;28;20016;-84
2020/12/19 12:05:17;;;;;;;13.75;7.93;;;12.30;98.30;;;;;;5106451;28;20110;-84
2020/12/19 12:07:43;;;;;;;9.57;7.45;;;12.40;98.30;;;;;;5087295;28;20169;-84
2020/12/19 12:10:08;;;;;;;11.40;7.80;;;12.50;98.00;;;;;;5078013;28;20031;-84
2020/12/19 12:12:34;;;;;;;10.48;7.50;;;12.60;97.80;;;;;;5074773;28;20103;-83
2020/12/19 12:14:59;;;;;;;11.73;8.10;;;12.70;97.70;;;;;;5072833;28;20017;-82
2020/12/19 12:17:25;;;;;;;12.32;7.93;;;12.50;97.10;;;;;;5074402;28;20038;-84
2020/12/19 12:19:51;;;;;;;10.68;7.00;;;12.40;97.00;;;;;;5073471;28;20059;-84
2020/12/19 12:22:16;;;;;;;9.98;6.95;;;12.20;97.40;;;;;;5074608;28;20028;-84
2020/12/19 12:24:42;;;;;;;10.88;8.20;;;12.10;98.30;;;;;;5074277;28;20065;-82
2020/12/19 12:27:07;;;;;;;11.20;7.47;;;12.10;98.00;;;;;;5074697;28;20020;-84
2020/12/19 12:29:33;;;;;;;10.57;7.95;;;12.00;98.40;;;;;;5074430;28;20024;-85
2020/12/19 12:31:58;;;;;;;10.75;7.38;;;11.90;98.50;;;;;;5092600;28;20027;-85
2020/12/19 12:34:24;;;;;;;10.90;7.82;;;11.90;98.50;;;;;;5074579;28;20013;-86
2020/12/19 12:36:50;;;;;;;8.55;7.18;;;11.80;98.90;;;;;;5074041;28;20024;-86
2020/12/19 12:39:15;;;;;;;14.43;7.80;;;11.80;99.10;;;;;;5071193;28;20040;-87
2020/12/19 12:41:46;;;;;;;11.35;7.93;;;11.80;99.10;;;;;;5093723;28;20490;-87
2020/12/19 12:44:11;;;;;;;10.80;8.20;;;11.80;99.00;;;;;;5091497;28;20046;-86
2020/12/19 12:46:37;;;;;;;9.95;7.97;;;11.80;99.30;;;;;;5074862;28;20020;-86
2020/12/19 12:49:03;;;;;;;15.88;9.07;;;11.70;99.40;;;;;;5074049;28;20122;-86
2020/12/19 12:51:28;;;;;;;11.68;8.65;;;11.70;99.50;;;;;;5074774;28;20462;-84
2020/12/19 12:53:54;;;;;;;10.18;8.60;;;11.70;99.80;;;;;;5073992;28;20032;-85
2020/12/19 12:56:24;;;;;;;13.25;9.38;;;11.70;99.80;;;;;;5071023;28;20024;-85